createdAt,value
2024-04-24T00:04:30.062Z,990.76
2024-04-24T00:14:37.774Z,990.69
2024-04-24T00:24:44.997Z,990.55
2024-04-24T00:34:52.112Z,990.41
2024-04-24T00:44:59.461Z,990.16
2024-04-24T00:55:06.206Z,990.11
2024-04-24T01:05:13.515Z,989.94
2024-04-24T01:15:20.953Z,989.77
2024-04-24T01:25:28.462Z,989.63
2024-04-24T01:35:35.132Z,989.62
2024-04-24T01:45:42.506Z,989.54
2024-04-24T01:55:50.062Z,989.46
2024-04-24T02:05:57.426Z,989.32
2024-04-24T02:16:04.129Z,989.23
2024-04-24T02:26:11.278Z,989.13
2024-04-24T02:36:18.900Z,989.1
2024-04-24T02:46:25.625Z,988.94
2024-04-24T02:56:33.073Z,988.81
2024-04-24T03:06:40.079Z,988.69
2024-04-24T03:16:47.721Z,988.61
2024-04-24T03:26:55.351Z,988.47
2024-04-24T03:37:02.498Z,988.42
2024-04-24T03:47:10.151Z,988.33
2024-04-24T03:57:17.788Z,988.22
2024-04-24T04:07:24.976Z,988.13
2024-04-24T04:17:32.779Z,988.12
2024-04-24T04:27:39.847Z,988.1
2024-04-24T04:37:47.378Z,988.09
2024-04-24T04:47:55.443Z,988.15
2024-04-24T04:58:03.397Z,988.1
2024-04-24T05:08:10.782Z,988.07
2024-04-24T05:18:22.407Z,987.98
2024-04-24T05:28:33.379Z,987.88
2024-04-24T05:38:40.884Z,987.78
2024-04-24T05:48:49.201Z,987.67
2024-04-24T05:58:57.406Z,987.74
2024-04-24T06:09:05.198Z,987.7
2024-04-24T06:19:12.761Z,987.63
2024-04-24T06:29:20.497Z,987.58
2024-04-24T06:39:27.741Z,987.51
2024-04-24T06:49:34.919Z,987.47
2024-04-24T06:59:42.044Z,987.42
2024-04-24T07:09:49.185Z,987.29
2024-04-24T07:19:55.802Z,987.3
2024-04-24T07:30:03.464Z,987.2
2024-04-24T07:40:11.300Z,987.17
2024-04-24T07:50:19.134Z,987.05
2024-04-24T08:00:26.621Z,987
2024-04-24T08:10:34.142Z,986.94
2024-04-24T08:20:41.506Z,986.9
2024-04-24T08:30:51.726Z,986.94
2024-04-24T08:40:59.191Z,986.84
2024-04-24T08:51:06.373Z,986.8
2024-04-24T09:01:14.045Z,986.59
2024-04-24T09:11:22.172Z,986.59
2024-04-24T09:21:29.893Z,986.53
2024-04-24T09:31:37.313Z,986.42
2024-04-24T09:41:44.642Z,986.36
2024-04-24T09:51:52.204Z,986.33
2024-04-24T10:01:59.906Z,986.34
2024-04-24T10:12:07.735Z,986.42
2024-04-24T10:22:15.097Z,986.36
2024-04-24T10:32:23.233Z,986.21
2024-04-24T10:42:30.871Z,986.18
2024-04-24T10:52:38.395Z,986.12
2024-04-24T11:02:44.995Z,986.13
2024-04-24T11:12:52.565Z,986.26
2024-04-24T11:22:59.884Z,986.05
2024-04-24T11:33:07.946Z,985.94
2024-04-24T11:43:16.784Z,985.85
2024-04-24T11:53:23.853Z,985.89
2024-04-24T12:03:31.054Z,985.79
2024-04-24T12:13:38.421Z,985.45
2024-04-24T12:23:47.943Z,985.29
2024-04-24T12:33:56.439Z,985.53
2024-04-24T12:44:04.900Z,985.4
2024-04-24T12:54:11.464Z,985.17
2024-04-24T13:04:21.303Z,984.99
2024-04-24T13:14:30.584Z,985.24
2024-04-24T13:24:36.885Z,985.18
2024-04-24T13:34:43.688Z,984.81
2024-04-24T13:44:54.974Z,984.72
2024-04-24T13:55:04.023Z,984.75
2024-04-24T14:05:09.765Z,984.7
2024-04-24T14:15:17.194Z,984.68
2024-04-24T14:25:25.791Z,984.45
2024-04-24T14:35:34.785Z,984.39
2024-04-24T14:45:43.538Z,984.19
2024-04-24T14:55:49.520Z,984.58
2024-04-24T15:05:53.596Z,985.05
2024-04-24T15:15:58.237Z,985.11
2024-04-24T15:26:05.180Z,985.1
2024-04-24T15:36:12.368Z,984.85
2024-04-24T15:46:19.332Z,984.74
2024-04-24T15:56:28.380Z,984.28
2024-04-24T16:06:36.749Z,984.29
2024-04-24T16:16:45.962Z,984.28
2024-04-24T16:26:52.151Z,984.27
2024-04-24T16:36:57.842Z,984.24
2024-04-24T16:47:04.551Z,984.34
2024-04-24T16:57:11.160Z,984.28
2024-04-24T17:07:18.175Z,984.29
2024-04-24T17:17:25.791Z,984.73
2024-04-24T17:27:32.742Z,984.88
2024-04-24T17:37:39.387Z,985.07
2024-04-24T17:47:46.880Z,984.94
2024-04-24T17:57:54.266Z,984.74
2024-04-24T18:08:01.392Z,984.7
2024-04-24T18:18:09.469Z,984.7
2024-04-24T18:28:16.879Z,984.69
2024-04-24T18:38:24.910Z,984.74
2024-04-24T18:48:32.419Z,984.81
2024-04-24T18:58:40.111Z,984.8
2024-04-24T19:08:47.283Z,984.83
2024-04-24T19:18:54.318Z,984.9
2024-04-24T19:29:01.442Z,984.88
2024-04-24T19:39:08.689Z,984.94
2024-04-24T19:49:16.119Z,985.01
2024-04-24T19:59:23.605Z,984.93
2024-04-24T20:09:31.146Z,984.95
2024-04-24T20:19:38.216Z,984.94
2024-04-24T20:29:45.407Z,984.95
2024-04-24T20:39:52.924Z,984.97
2024-04-24T20:50:00.257Z,984.95
2024-04-24T21:00:08.745Z,984.98
2024-04-24T21:10:15.578Z,984.99
2024-04-24T21:20:23.112Z,984.91
2024-04-24T21:30:30.179Z,984.86
2024-04-24T21:40:37.184Z,984.8
2024-04-24T21:50:44.549Z,984.75
2024-04-24T22:00:52.435Z,984.7
2024-04-24T22:11:00.252Z,984.64
2024-04-24T22:21:07.690Z,984.7
2024-04-24T22:31:15.054Z,984.73
2024-04-24T22:41:21.952Z,984.69
2024-04-24T22:51:29.295Z,984.66
2024-04-24T23:01:36.513Z,984.68
2024-04-24T23:11:44.206Z,984.58
2024-04-24T23:21:51.453Z,984.51
2024-04-24T23:31:58.748Z,984.58
2024-04-24T23:42:06.569Z,984.46
2024-04-24T23:52:13.768Z,984.35
